createdAt,value
2023-02-16T00:01:56.266Z,98.40
2023-02-16T00:04:26.744Z,109.30
2023-02-16T00:06:56.152Z,96.33
2023-02-16T00:09:25.474Z,102.60
2023-02-16T00:12:12.329Z,88.33
2023-02-16T00:14:42.381Z,92.67
2023-02-16T00:17:12.435Z,96.53
2023-02-16T00:19:43.110Z,99.17
2023-02-16T00:22:12.519Z,92.73
2023-02-16T00:24:41.588Z,97.30
2023-02-16T00:27:16.397Z,102.03
2023-02-16T00:29:47.075Z,99.30
2023-02-16T00:32:15.914Z,101.93
2023-02-16T00:34:45.433Z,103.77
2023-02-16T00:37:15.093Z,111.10
2023-02-16T00:39:49.378Z,103.47
2023-02-16T00:42:20.794Z,116.30
2023-02-16T00:44:52.996Z,102.50
2023-02-16T00:47:24.501Z,108.60
2023-02-16T00:49:55.169Z,107.43
2023-02-16T00:52:33.514Z,92.10
2023-02-16T00:55:03.741Z,95.67
2023-02-16T00:57:35.166Z,95.40
2023-02-16T01:00:08.880Z,109.90
2023-02-16T01:02:37.644Z,88.63
2023-02-16T01:05:06.751Z,75.60
2023-02-16T01:07:52.657Z,99.60
2023-02-16T01:10:39.133Z,76.17
2023-02-16T01:13:07.605Z,100.53
2023-02-16T01:15:37.786Z,90.37
2023-02-16T01:18:06.064Z,84.37
2023-02-16T01:20:36.533Z,91.33
2023-02-16T01:23:05.077Z,77.37
2023-02-16T01:25:33.656Z,95.70
2023-02-16T01:28:02.096Z,75.33
2023-02-16T01:30:30.688Z,81.13
2023-02-16T01:33:00.201Z,76.93
2023-02-16T01:35:32.609Z,82.03
2023-02-16T01:38:01.172Z,77.67
2023-02-16T01:40:41.371Z,74.00
2023-02-16T01:43:19.988Z,81.73
2023-02-16T01:45:52.999Z,74.93
2023-02-16T01:48:27.370Z,73.40
2023-02-16T01:51:06.392Z,71.90
2023-02-16T01:53:41.210Z,81.00
2023-02-16T01:56:22.639Z,75.10
2023-02-16T01:58:55.588Z,77.00
2023-02-16T02:01:41.108Z,75.87
2023-02-16T02:04:40.013Z,83.00
2023-02-16T02:07:09.923Z,81.10
2023-02-16T02:09:44.144Z,72.63
2023-02-16T02:12:23.523Z,74.10
2023-02-16T02:14:51.811Z,75.77
2023-02-16T02:17:22.370Z,76.37
2023-02-16T02:19:59.545Z,90.40
2023-02-16T02:23:19.391Z,84.00
2023-02-16T02:26:21.996Z,82.83
2023-02-16T02:29:03.413Z,90.63
2023-02-16T02:31:43.879Z,79.70
2023-02-16T02:34:24.812Z,79.40
2023-02-16T02:37:02.900Z,76.80
2023-02-16T02:39:41.765Z,84.93
2023-02-16T02:42:14.986Z,86.93
2023-02-16T02:44:49.766Z,94.13
2023-02-16T02:47:18.539Z,94.20
2023-02-16T02:49:54.756Z,82.53
2023-02-16T02:52:24.504Z,95.47
2023-02-16T02:55:11.154Z,89.23
2023-02-16T02:58:01.398Z,91.00
2023-02-16T03:00:46.796Z,81.13
2023-02-16T03:03:20.837Z,98.33
2023-02-16T03:05:54.205Z,91.53
2023-02-16T03:08:25.954Z,96.73
2023-02-16T03:11:16.432Z,96.27
2023-02-16T03:13:49.021Z,82.47
2023-02-16T03:16:26.951Z,99.37
2023-02-16T03:19:13.380Z,98.27
2023-02-16T03:22:00.110Z,110.07
2023-02-16T03:24:48.262Z,88.57
2023-02-16T03:27:38.815Z,91.57
2023-02-16T03:30:09.580Z,89.60
2023-02-16T03:32:39.863Z,79.57
2023-02-16T03:35:08.836Z,88.53
2023-02-16T03:37:37.522Z,84.20
2023-02-16T03:40:25.669Z,89.30
2023-02-16T03:42:54.465Z,87.43
2023-02-16T03:45:24.945Z,79.47
2023-02-16T03:47:55.745Z,86.33
2023-02-16T03:50:26.462Z,84.30
2023-02-16T03:53:06.816Z,79.37
2023-02-16T03:55:37.127Z,84.80
2023-02-16T03:58:06.980Z,88.07
2023-02-16T04:00:36.822Z,68.10
2023-02-16T04:03:08.905Z,74.73
2023-02-16T04:05:37.778Z,91.13
2023-02-16T04:08:07.032Z,81.80
2023-02-16T04:10:35.942Z,76.77
2023-02-16T04:13:03.604Z,84.67
2023-02-16T04:15:32.847Z,88.57
2023-02-16T04:18:01.843Z,85.13
2023-02-16T04:20:33.759Z,81.27
2023-02-16T04:23:03.219Z,80.57
2023-02-16T04:25:32.278Z,78.90
2023-02-16T04:28:01.204Z,70.53
2023-02-16T04:30:31.779Z,67.07
2023-02-16T04:33:00.386Z,74.60
2023-02-16T04:35:28.813Z,70.17
2023-02-16T04:37:58.807Z,72.90
2023-02-16T04:40:27.338Z,66.57
2023-02-16T04:42:56.171Z,72.23
2023-02-16T04:45:24.445Z,82.73
2023-02-16T04:47:53.249Z,73.00
2023-02-16T04:50:22.409Z,62.73
2023-02-16T04:52:51.343Z,65.93
2023-02-16T04:55:23.841Z,76.73
2023-02-16T04:57:52.312Z,68.83
2023-02-16T05:00:21.740Z,71.80
2023-02-16T05:02:50.263Z,76.13
2023-02-16T05:05:18.734Z,74.13
2023-02-16T05:07:47.171Z,76.97
2023-02-16T05:10:15.340Z,80.43
2023-02-16T05:13:02.656Z,69.33
2023-02-16T05:15:30.849Z,83.87
2023-02-16T05:17:59.470Z,80.50
2023-02-16T05:20:41.702Z,92.47
2023-02-16T05:23:10.570Z,89.40
2023-02-16T05:25:38.893Z,79.23
2023-02-16T05:28:08.729Z,102.77
2023-02-16T05:30:37.086Z,91.07
2023-02-16T05:33:05.894Z,114.40
2023-02-16T05:35:35.561Z,91.20
2023-02-16T05:38:06.524Z,98.23
2023-02-16T05:40:34.834Z,86.63
2023-02-16T05:43:03.294Z,92.47
2023-02-16T05:45:32.821Z,86.67
2023-02-16T05:48:01.284Z,105.47
2023-02-16T05:50:29.623Z,95.67
2023-02-16T05:52:58.238Z,96.90
2023-02-16T05:55:26.541Z,99.77
2023-02-16T05:57:55.110Z,97.17
2023-02-16T06:00:23.477Z,80.77
2023-02-16T06:02:53.417Z,86.03
2023-02-16T06:05:22.033Z,97.03
2023-02-16T06:07:50.716Z,110.33
2023-02-16T06:10:19.408Z,86.87
2023-02-16T06:12:48.116Z,89.20
2023-02-16T06:15:16.402Z,90.30
2023-02-16T06:17:45.632Z,78.60
2023-02-16T06:20:15.409Z,87.90
2023-02-16T06:22:44.006Z,88.67
2023-02-16T06:25:12.322Z,77.57
2023-02-16T06:27:40.811Z,80.07
2023-02-16T06:30:09.952Z,79.80
2023-02-16T06:32:38.570Z,76.77
2023-02-16T06:35:07.525Z,74.77
2023-02-16T06:37:37.348Z,86.50
2023-02-16T06:40:06.317Z,92.03
2023-02-16T06:42:35.216Z,100.43
2023-02-16T06:45:03.788Z,90.80
2023-02-16T06:47:32.411Z,87.00
2023-02-16T06:50:00.755Z,86.40
2023-02-16T06:52:29.812Z,85.03
2023-02-16T06:54:59.627Z,81.40
2023-02-16T06:57:28.190Z,88.50
2023-02-16T06:59:56.859Z,85.53
2023-02-16T07:02:25.480Z,74.60
2023-02-16T07:04:54.578Z,86.07
2023-02-16T07:07:24.108Z,92.07
2023-02-16T07:09:52.308Z,84.30
2023-02-16T07:12:23.507Z,81.87
2023-02-16T07:14:51.740Z,79.70
2023-02-16T07:17:20.467Z,75.97
2023-02-16T07:19:48.750Z,88.90
2023-02-16T07:22:17.765Z,77.67
2023-02-16T07:24:45.989Z,72.03
2023-02-16T07:27:14.416Z,82.23
2023-02-16T07:29:46.749Z,74.70
2023-02-16T07:32:15.798Z,80.83
2023-02-16T07:34:45.734Z,80.83
2023-02-16T07:37:14.256Z,76.03
2023-02-16T07:39:42.475Z,74.27
2023-02-16T07:42:11.227Z,83.77
2023-02-16T07:44:39.658Z,76.47
2023-02-16T07:47:09.581Z,90.13
2023-02-16T07:49:37.779Z,77.80
2023-02-16T07:52:06.563Z,77.63
2023-02-16T07:54:35.011Z,65.47
2023-02-16T07:57:03.571Z,73.10
2023-02-16T07:59:31.834Z,64.00
2023-02-16T08:02:00.675Z,72.33
2023-02-16T08:04:30.712Z,64.53
2023-02-16T08:06:59.300Z,86.13
2023-02-16T08:09:27.789Z,77.43
2023-02-16T08:11:56.398Z,75.10
2023-02-16T08:14:24.584Z,72.73
2023-02-16T08:16:55.531Z,67.57
2023-02-16T08:19:24.935Z,79.73
2023-02-16T08:21:54.720Z,65.97
2023-02-16T08:24:24.949Z,61.40
2023-02-16T08:26:53.869Z,76.80
2023-02-16T08:29:22.795Z,67.57
2023-02-16T08:31:52.241Z,74.47
2023-02-16T08:34:22.117Z,78.77
2023-02-16T08:36:56.898Z,89.23
2023-02-16T08:39:27.432Z,65.77
2023-02-16T08:41:56.451Z,81.53
2023-02-16T08:44:26.614Z,89.30
2023-02-16T08:46:57.316Z,90.33
2023-02-16T08:49:26.161Z,94.87
2023-02-16T08:51:58.017Z,78.73
2023-02-16T08:54:30.192Z,78.43
2023-02-16T08:57:01.568Z,82.20
2023-02-16T08:59:30.409Z,74.63
2023-02-16T09:02:00.068Z,69.67
2023-02-16T09:04:29.942Z,72.07
2023-02-16T09:07:00.952Z,68.63
2023-02-16T09:09:29.775Z,78.80
2023-02-16T09:11:58.635Z,61.00
2023-02-16T09:14:28.003Z,66.77
2023-02-16T09:16:58.153Z,74.20
2023-02-16T09:19:26.651Z,79.80
2023-02-16T09:21:56.384Z,80.03
2023-02-16T09:24:26.954Z,76.57
2023-02-16T09:26:55.587Z,71.13
2023-02-16T09:29:23.911Z,74.80
2023-02-16T09:31:52.879Z,69.97
2023-02-16T09:34:23.615Z,60.50
2023-02-16T09:36:52.762Z,83.17
2023-02-16T09:39:21.644Z,73.43
2023-02-16T09:42:04.874Z,73.40
2023-02-16T09:44:43.452Z,69.60
2023-02-16T09:47:20.069Z,70.20
2023-02-16T09:49:49.468Z,63.13
2023-02-16T09:52:25.138Z,63.53
2023-02-16T09:54:54.907Z,63.87
2023-02-16T09:57:49.008Z,73.73
2023-02-16T10:00:27.639Z,66.00
2023-02-16T10:03:01.656Z,64.00
2023-02-16T10:05:35.590Z,73.87
2023-02-16T10:08:09.470Z,53.97
2023-02-16T10:10:48.910Z,54.90
2023-02-16T10:13:25.069Z,53.27
2023-02-16T10:15:55.225Z,48.37
2023-02-16T10:18:29.426Z,71.53
2023-02-16T10:21:02.275Z,49.63
2023-02-16T10:23:46.455Z,47.33
2023-02-16T10:26:24.567Z,49.90
2023-02-16T10:28:56.161Z,52.58
2023-02-16T10:31:31.244Z,43.40
2023-02-16T10:34:11.507Z,39.72
2023-02-16T10:37:01.282Z,39.20
2023-02-16T10:39:36.812Z,41.03
2023-02-16T10:42:15.221Z,36.97
2023-02-16T10:44:49.970Z,32.40
2023-02-16T10:47:29.527Z,39.70
2023-02-16T10:49:58.072Z,44.30
2023-02-16T10:52:27.313Z,40.90
2023-02-16T10:54:55.840Z,35.97
2023-02-16T10:57:27.619Z,49.20
2023-02-16T11:00:00.415Z,37.70
2023-02-16T11:02:31.652Z,48.93
2023-02-16T11:05:00.786Z,41.57
2023-02-16T11:07:31.544Z,36.57
2023-02-16T11:10:02.206Z,49.63
2023-02-16T11:12:32.478Z,43.47
2023-02-16T11:15:06.951Z,42.93
2023-02-16T11:17:52.629Z,41.30
2023-02-16T11:20:29.769Z,39.33
2023-02-16T11:23:14.165Z,43.60
2023-02-16T11:25:43.095Z,39.17
2023-02-16T11:28:12.379Z,32.25
2023-02-16T11:30:43.514Z,35.57
2023-02-16T11:33:23.450Z,41.42
2023-02-16T11:35:52.231Z,41.77
2023-02-16T11:38:38.467Z,34.23
2023-02-16T11:41:08.547Z,39.73
2023-02-16T11:43:39.247Z,42.43
2023-02-16T11:46:15.603Z,35.13
2023-02-16T11:48:44.641Z,40.17
2023-02-16T11:51:16.230Z,44.13
2023-02-16T11:53:46.521Z,43.07
2023-02-16T11:56:24.088Z,39.88
2023-02-16T11:59:16.419Z,39.03
2023-02-16T12:02:04.558Z,36.88
2023-02-16T12:04:46.817Z,45.03
2023-02-16T12:07:23.380Z,32.88
2023-02-16T12:10:01.174Z,36.60
2023-02-16T12:12:38.400Z,48.42
2023-02-16T12:15:19.408Z,37.13
2023-02-16T12:18:06.092Z,36.70
2023-02-16T12:20:45.809Z,40.45
2023-02-16T12:23:29.754Z,47.00
2023-02-16T12:26:28.517Z,34.70
2023-02-16T12:29:08.572Z,43.63
2023-02-16T12:31:52.205Z,36.05
2023-02-16T12:34:29.675Z,39.97
2023-02-16T12:37:05.092Z,37.03
2023-02-16T12:39:45.808Z,43.47
2023-02-16T12:42:41.117Z,34.53
2023-02-16T12:45:15.653Z,43.10
2023-02-16T12:47:47.732Z,47.60
2023-02-16T12:50:22.472Z,45.37
2023-02-16T12:52:56.462Z,34.17
2023-02-16T12:55:30.040Z,34.23
2023-02-16T12:58:05.323Z,40.07
2023-02-16T13:00:42.117Z,40.33
2023-02-16T13:03:25.073Z,40.60
2023-02-16T13:06:04.506Z,36.10
2023-02-16T13:08:40.936Z,42.83
2023-02-16T13:11:17.550Z,41.77
2023-02-16T13:13:49.614Z,39.40
2023-02-16T13:16:30.166Z,46.03
2023-02-16T13:18:59.374Z,48.93
2023-02-16T13:21:52.113Z,46.23
2023-02-16T13:24:32.150Z,38.83
2023-02-16T13:27:16.225Z,48.63
2023-02-16T13:30:10.528Z,38.90
2023-02-16T13:32:59.008Z,40.87
2023-02-16T13:36:07.883Z,43.47
2023-02-16T13:39:04.823Z,39.97
2023-02-16T13:41:46.024Z,39.40
2023-02-16T13:44:19.683Z,48.07
2023-02-16T13:46:52.643Z,40.57
2023-02-16T13:49:32.252Z,40.53
2023-02-16T13:52:01.418Z,38.70
2023-02-16T13:54:34.701Z,45.43
2023-02-16T13:57:04.233Z,44.80
2023-02-16T14:00:01.255Z,43.00
2023-02-16T14:02:58.685Z,45.03
2023-02-16T14:05:31.811Z,45.70
2023-02-16T14:08:21.974Z,38.35
2023-02-16T14:11:12.769Z,45.97
2023-02-16T14:13:49.862Z,41.30
2023-02-16T14:16:35.124Z,41.20
2023-02-16T14:19:06.756Z,45.73
2023-02-16T14:21:41.288Z,41.27
2023-02-16T14:24:14.652Z,42.37
2023-02-16T14:26:59.375Z,44.37
2023-02-16T14:29:34.093Z,38.13
2023-02-16T14:32:08.294Z,38.10
2023-02-16T14:34:40.693Z,43.90
2023-02-16T14:37:29.235Z,41.43
2023-02-16T14:40:11.563Z,58.97
2023-02-16T14:42:49.210Z,43.10
2023-02-16T14:45:44.114Z,48.53
2023-02-16T14:48:25.632Z,40.40
2023-02-16T14:51:15.862Z,41.57
2023-02-16T14:54:30.533Z,47.07
2023-02-16T14:57:03.297Z,49.37
2023-02-16T14:59:38.894Z,44.57
2023-02-16T15:02:29.784Z,43.10
2023-02-16T15:04:59.285Z,43.80
2023-02-16T15:07:29.769Z,48.50
2023-02-16T15:09:59.644Z,45.57
2023-02-16T15:12:33.468Z,51.90
2023-02-16T15:15:07.922Z,50.53
2023-02-16T15:17:39.150Z,56.20
2023-02-16T15:20:12.115Z,37.60
2023-02-16T15:22:44.855Z,49.43
2023-02-16T15:25:25.639Z,42.53
2023-02-16T15:27:58.995Z,44.70
2023-02-16T15:30:31.444Z,41.57
2023-02-16T15:33:02.527Z,54.17
2023-02-16T15:35:36.883Z,49.50
2023-02-16T15:38:20.679Z,58.20
2023-02-16T15:40:53.915Z,50.23
2023-02-16T15:43:32.891Z,45.93
2023-02-16T15:46:06.228Z,50.87
2023-02-16T15:48:36.774Z,56.83
2023-02-16T15:51:14.333Z,50.83
2023-02-16T15:53:50.135Z,52.40
2023-02-16T15:56:29.533Z,48.13
2023-02-16T15:59:00.907Z,41.00
2023-02-16T16:01:37.367Z,41.63
2023-02-16T16:04:09.507Z,44.07
2023-02-16T16:06:40.992Z,44.37
2023-02-16T16:09:18.764Z,36.87
2023-02-16T16:11:47.861Z,50.43
2023-02-16T16:14:17.668Z,56.47
2023-02-16T16:16:48.111Z,43.40
2023-02-16T16:19:19.058Z,51.53
2023-02-16T16:21:51.427Z,51.43
2023-02-16T16:24:33.651Z,54.20
2023-02-16T16:27:07.269Z,52.90
2023-02-16T16:29:38.724Z,50.27
2023-02-16T16:32:19.327Z,48.13
2023-02-16T16:34:48.020Z,47.97
2023-02-16T16:37:26.788Z,45.77
2023-02-16T16:40:05.490Z,51.10
2023-02-16T16:42:36.328Z,50.30
2023-02-16T16:45:07.856Z,50.53
2023-02-16T16:47:40.615Z,52.93
2023-02-16T16:50:31.693Z,47.80
2023-02-16T16:53:00.279Z,49.90
2023-02-16T16:55:31.688Z,47.40
2023-02-16T16:58:01.811Z,46.10
2023-02-16T17:00:34.460Z,58.07
2023-02-16T17:03:06.369Z,54.27
2023-02-16T17:05:38.230Z,49.20
2023-02-16T17:08:06.972Z,43.47
2023-02-16T17:10:37.522Z,42.27
2023-02-16T17:13:06.452Z,53.67
2023-02-16T17:15:43.198Z,50.60
2023-02-16T17:18:16.115Z,61.20
2023-02-16T17:20:44.932Z,55.93
2023-02-16T17:23:15.156Z,57.77
2023-02-16T17:25:43.830Z,62.30
2023-02-16T17:28:13.599Z,66.60
2023-02-16T17:30:42.895Z,77.20
2023-02-16T17:33:13.114Z,79.67
2023-02-16T17:35:43.432Z,68.57
2023-02-16T17:38:13.864Z,69.30
2023-02-16T17:40:43.855Z,73.83
2023-02-16T17:43:14.503Z,64.43
2023-02-16T17:45:43.389Z,65.47
2023-02-16T17:48:17.476Z,52.50
2023-02-16T17:50:45.954Z,56.10
2023-02-16T17:53:15.658Z,54.63
2023-02-16T17:55:44.956Z,73.30
2023-02-16T17:58:14.369Z,73.87
2023-02-16T18:00:43.668Z,71.63
2023-02-16T18:03:13.920Z,63.10
2023-02-16T18:05:42.320Z,68.63
2023-02-16T18:08:13.128Z,67.97
2023-02-16T18:10:44.576Z,76.57
2023-02-16T18:13:14.570Z,71.90
2023-02-16T18:15:45.388Z,76.57
2023-02-16T18:18:16.831Z,73.20
2023-02-16T18:20:45.592Z,94.37
2023-02-16T18:23:14.691Z,81.67
2023-02-16T18:25:44.141Z,71.83
2023-02-16T18:28:15.028Z,62.87
2023-02-16T18:30:43.352Z,76.70
2023-02-16T18:33:12.197Z,79.93
2023-02-16T18:35:41.800Z,80.53
2023-02-16T18:38:10.713Z,77.33
2023-02-16T18:40:38.966Z,72.07
2023-02-16T18:43:07.681Z,70.03
2023-02-16T18:45:38.051Z,74.53
2023-02-16T18:48:06.648Z,92.40
2023-02-16T18:50:35.407Z,75.30
2023-02-16T18:53:05.545Z,72.33
2023-02-16T18:55:34.148Z,73.20
2023-02-16T18:58:07.303Z,69.17
2023-02-16T19:00:36.155Z,75.93
2023-02-16T19:03:04.955Z,69.77
2023-02-16T19:05:33.598Z,75.00
2023-02-16T19:08:02.276Z,75.13
2023-02-16T19:10:32.068Z,84.20
2023-02-16T19:13:02.116Z,91.27
2023-02-16T19:15:30.689Z,71.00
2023-02-16T19:17:59.189Z,87.10
2023-02-16T19:20:29.017Z,67.57
2023-02-16T19:22:57.862Z,81.60
2023-02-16T19:25:26.863Z,80.60
2023-02-16T19:27:56.768Z,72.37
2023-02-16T19:30:25.098Z,69.70
2023-02-16T19:32:53.644Z,71.03
2023-02-16T19:35:22.042Z,87.63
2023-02-16T19:37:51.734Z,77.03
2023-02-16T19:40:20.543Z,73.57
2023-02-16T19:42:49.125Z,72.77
2023-02-16T19:45:18.930Z,75.97
2023-02-16T19:47:47.571Z,76.20
2023-02-16T19:50:15.850Z,61.50
2023-02-16T19:52:44.365Z,66.73
2023-02-16T19:55:12.872Z,71.67
2023-02-16T19:57:41.443Z,72.57
2023-02-16T20:00:13.465Z,64.53
2023-02-16T20:02:43.296Z,64.60
2023-02-16T20:05:11.874Z,57.83
2023-02-16T20:07:40.579Z,61.63
2023-02-16T20:10:09.729Z,62.23
2023-02-16T20:12:38.209Z,55.10
2023-02-16T20:15:06.916Z,46.63
2023-02-16T20:17:35.581Z,62.53
2023-02-16T20:20:06.387Z,54.37
2023-02-16T20:22:35.140Z,50.30
2023-02-16T20:25:03.502Z,46.17
2023-02-16T20:27:32.092Z,52.17
2023-02-16T20:30:02.869Z,41.47
2023-02-16T20:32:31.800Z,44.00
2023-02-16T20:35:00.253Z,42.90
2023-02-16T20:37:30.319Z,41.03
2023-02-16T20:39:58.658Z,43.27
2023-02-16T20:42:28.657Z,45.33
2023-02-16T20:44:57.011Z,47.97
2023-02-16T20:47:25.484Z,47.20
2023-02-16T20:49:53.825Z,49.57
2023-02-16T20:52:22.248Z,41.37
2023-02-16T20:54:51.813Z,44.27
2023-02-16T20:57:26.891Z,35.07
2023-02-16T20:59:55.796Z,39.20
2023-02-16T21:02:24.664Z,40.38
2023-02-16T21:04:53.253Z,50.27
2023-02-16T21:07:21.761Z,43.60
2023-02-16T21:09:51.447Z,46.93
2023-02-16T21:12:20.142Z,37.65
2023-02-16T21:14:48.455Z,42.87
2023-02-16T21:17:17.389Z,46.10
2023-02-16T21:19:46.130Z,40.90
2023-02-16T21:22:14.682Z,43.23
2023-02-16T21:24:43.722Z,40.63
2023-02-16T21:27:13.983Z,44.15
2023-02-16T21:29:42.267Z,45.70
2023-02-16T21:32:11.228Z,41.93
2023-02-16T21:34:39.527Z,40.17
2023-02-16T21:37:08.011Z,35.87
2023-02-16T21:39:53.912Z,38.90
2023-02-16T21:42:23.783Z,42.27
2023-02-16T21:45:12.020Z,41.50
2023-02-16T21:47:58.745Z,43.13
2023-02-16T21:50:27.164Z,50.67
2023-02-16T21:52:56.086Z,30.00
2023-02-16T21:55:42.017Z,44.50
2023-02-16T21:58:11.900Z,49.23
2023-02-16T22:00:40.314Z,46.92
2023-02-16T22:03:11.206Z,44.10
2023-02-16T22:05:39.796Z,44.07
2023-02-16T22:08:12.584Z,39.20
2023-02-16T22:10:42.378Z,38.40
2023-02-16T22:13:12.404Z,43.47
2023-02-16T22:15:40.684Z,46.33
2023-02-16T22:18:09.272Z,35.83
2023-02-16T22:20:37.771Z,41.60
2023-02-16T22:23:06.539Z,47.97
2023-02-16T22:25:34.968Z,43.63
2023-02-16T22:28:03.707Z,35.33
2023-02-16T22:30:33.344Z,44.47
2023-02-16T22:33:02.159Z,40.20
2023-02-16T22:35:30.578Z,41.43
2023-02-16T22:37:59.028Z,43.57
2023-02-16T22:40:27.239Z,46.30
2023-02-16T22:42:55.872Z,50.30
2023-02-16T22:45:24.411Z,39.27
2023-02-16T22:47:54.410Z,44.73
2023-02-16T22:50:22.800Z,37.93
2023-02-16T22:52:51.432Z,41.43
2023-02-16T22:55:19.996Z,44.43
2023-02-16T22:57:48.494Z,32.10
2023-02-16T23:00:18.207Z,36.70
2023-02-16T23:02:46.770Z,33.87
2023-02-16T23:05:16.648Z,43.57
2023-02-16T23:07:45.166Z,36.53
2023-02-16T23:10:13.828Z,37.97
2023-02-16T23:12:42.337Z,35.10
2023-02-16T23:15:11.529Z,42.23
2023-02-16T23:17:39.988Z,41.83
2023-02-16T23:20:09.507Z,36.73
2023-02-16T23:22:39.875Z,40.90
2023-02-16T23:25:25.821Z,45.50
2023-02-16T23:27:55.050Z,34.27
2023-02-16T23:30:23.535Z,46.23
2023-02-16T23:32:52.729Z,37.93
2023-02-16T23:35:21.010Z,39.17
2023-02-16T23:37:50.885Z,35.77
2023-02-16T23:40:19.408Z,40.90
2023-02-16T23:42:47.966Z,32.23
2023-02-16T23:45:16.250Z,37.50
2023-02-16T23:47:44.792Z,37.07
2023-02-16T23:50:13.202Z,33.77
2023-02-16T23:52:41.856Z,37.83
2023-02-16T23:55:11.711Z,45.97
2023-02-16T23:57:40.354Z,37.07
